Terminal Aerodrome Forecast
Issued by NWS

Home | Current Version | Previous Version | Text Only | Print | Product List | Glossary On
Versions: 1 2 3 4 5 6 7 8 9 10 11 12
000
FTUS45 KABQ 011127
TAFTCC
TAF
KTCC 011127Z 0112/0212 20010KT P6SM FEW110 SCT200
     FM011700 20012G19KT P6SM FEW100 SCT200
     FM012200 20015KT P6SM VCSH SCT090 BKN150
     FM020400 20010KT P6SM SCT120 BKN200=

USA.gov is the U.S. government's official web portal to all federal, state and local government web resources and services.